createdAt,value
2019-02-21T00:02:45.783Z,100438.08
2019-02-21T00:05:35.555Z,100452.94
2019-02-21T00:08:25.370Z,100445.63
2019-02-21T00:11:15.152Z,100445.55
2019-02-21T00:14:04.944Z,100444.20
2019-02-21T00:16:54.771Z,100448.82
2019-02-21T00:19:44.549Z,100449.16
2019-02-21T00:22:34.330Z,100450.01
2019-02-21T00:25:24.158Z,100459.82
2019-02-21T00:28:13.964Z,100459.42
2019-02-21T00:31:04.273Z,100464.46
2019-02-21T00:33:54.482Z,100452.46
2019-02-21T00:36:44.444Z,100452.47
2019-02-21T00:39:34.206Z,100449.64
2019-02-21T00:42:24.030Z,100449.08
2019-02-21T00:45:13.815Z,100449.27
2019-02-21T00:48:03.610Z,100453.86
2019-02-21T00:50:53.395Z,100459.25
2019-02-21T00:53:43.189Z,100456.01
2019-02-21T00:56:32.937Z,100455.28
2019-02-21T00:59:22.842Z,100459.45
2019-02-21T01:02:12.629Z,100457.58
2019-02-21T01:05:02.458Z,100457.28
2019-02-21T01:08:11.093Z,100458.59
2019-02-21T01:11:00.870Z,100450.86
2019-02-21T01:13:50.703Z,100456.20
2019-02-21T01:16:40.507Z,100460.70
2019-02-21T01:19:30.343Z,100464.92
2019-02-21T01:22:20.138Z,100459.94
2019-02-21T01:25:09.925Z,100470.94
2019-02-21T01:27:59.701Z,100462.14
2019-02-21T01:30:56.716Z,100461.16
2019-02-21T01:33:34.411Z,100452.34
2019-02-21T01:36:24.225Z,100455.06
2019-02-21T01:39:14.067Z,100459.73
2019-02-21T01:42:03.851Z,100461.22
2019-02-21T01:44:53.676Z,100462.44
2019-02-21T01:47:43.447Z,100449.34
2019-02-21T01:50:33.277Z,100451.52
2019-02-21T01:53:23.038Z,100458.74
2019-02-21T01:56:12.900Z,100453.20
2019-02-21T01:59:02.619Z,100457.77
2019-02-21T02:01:52.415Z,100451.45
2019-02-21T02:04:42.189Z,100448.30
2019-02-21T02:07:32.000Z,100450.03
2019-02-21T02:10:21.806Z,100450.89
2019-02-21T02:13:23.703Z,100447.50
2019-02-21T02:15:54.677Z,100447.59
2019-02-21T02:18:44.448Z,100446.67
2019-02-21T02:21:34.203Z,100448.53
2019-02-21T02:24:23.993Z,100457.42
2019-02-21T02:27:13.743Z,100449.91
2019-02-21T02:30:03.542Z,100455.90
2019-02-21T02:32:53.279Z,100458.73
2019-02-21T02:35:43.075Z,100459.23
2019-02-21T02:38:32.881Z,100465.30
2019-02-21T02:41:22.683Z,100465.30
2019-02-21T02:44:12.479Z,100470.58
2019-02-21T02:47:02.256Z,100470.12
2019-02-21T02:49:52.042Z,100469.25
2019-02-21T02:52:41.913Z,100467.56
2019-02-21T02:55:31.708Z,100469.48
2019-02-21T02:58:21.507Z,100468.91
2019-02-21T03:01:11.374Z,100467.52
2019-02-21T03:04:01.319Z,100465.66
2019-02-21T03:06:45.689Z,100462.30
2019-02-21T03:09:35.457Z,100459.76
2019-02-21T03:12:25.220Z,100465.34
2019-02-21T03:15:15.013Z,100466.42
2019-02-21T03:18:04.780Z,100467.27
2019-02-21T03:20:54.572Z,100473.06
2019-02-21T03:23:44.358Z,100476.34
2019-02-21T03:26:34.507Z,100475.76
2019-02-21T03:29:24.310Z,100479.88
2019-02-21T03:32:14.115Z,100480.00
2019-02-21T03:35:03.893Z,100475.53
2019-02-21T03:37:53.728Z,100477.94
2019-02-21T03:40:43.609Z,100481.62
2019-02-21T03:43:33.465Z,100485.27
2019-02-21T03:46:23.332Z,100491.08
2019-02-21T03:49:15.220Z,100489.73
2019-02-21T03:52:04.994Z,100490.14
2019-02-21T03:54:54.782Z,100496.83
2019-02-21T03:57:44.558Z,100500.64
2019-02-21T04:00:34.351Z,100493.69
2019-02-21T04:03:24.132Z,100494.05
2019-02-21T04:06:13.925Z,100490.16
2019-02-21T04:09:04.532Z,100489.94
2019-02-21T04:11:54.343Z,100485.08
2019-02-21T04:14:44.115Z,100482.41
2019-02-21T04:17:33.896Z,100485.72
2019-02-21T04:20:23.690Z,100483.48
2019-02-21T04:23:13.479Z,100484.06
2019-02-21T04:26:03.282Z,100485.33
2019-02-21T04:28:53.062Z,100486.74
2019-02-21T04:31:42.833Z,100484.59
2019-02-21T04:34:32.613Z,100481.52
2019-02-21T04:37:22.379Z,100473.64
2019-02-21T04:40:13.105Z,100473.47
2019-02-21T04:43:02.880Z,100474.44
2019-02-21T04:45:52.659Z,100470.64
2019-02-21T04:48:42.446Z,100465.37
2019-02-21T04:51:32.246Z,100460.89
2019-02-21T04:54:22.046Z,100464.50
2019-02-21T04:57:11.889Z,100463.55
2019-02-21T05:00:01.696Z,100459.77
2019-02-21T05:02:51.525Z,100455.47
2019-02-21T05:05:41.678Z,100468.10
2019-02-21T05:08:31.513Z,100468.83
2019-02-21T05:11:21.340Z,100464.07
2019-02-21T05:14:11.199Z,100467.02
2019-02-21T05:17:01.022Z,100464.45
2019-02-21T05:19:50.758Z,100469.55
2019-02-21T05:22:40.588Z,100467.48
2019-02-21T05:25:30.433Z,100470.34
2019-02-21T05:28:41.181Z,100470.61
2019-02-21T05:31:41.318Z,100468.41
2019-02-21T05:34:50.005Z,100471.78
2019-02-21T05:37:58.653Z,100466.73
2019-02-21T05:41:07.349Z,100472.66
2019-02-21T05:44:16.064Z,100468.93
2019-02-21T05:47:21.769Z,100478.81
2019-02-21T05:50:30.449Z,100474.95
2019-02-21T05:53:39.091Z,100483.97
2019-02-21T05:56:47.748Z,100481.34
2019-02-21T05:59:52.617Z,100483.88
2019-02-21T06:03:01.279Z,100489.38
2019-02-21T06:06:06.592Z,100487.28
2019-02-21T06:09:15.268Z,100493.62
2019-02-21T06:12:33.110Z,100492.63
2019-02-21T06:15:21.455Z,100494.67
2019-02-21T06:18:30.083Z,100492.56
2019-02-21T06:21:38.760Z,100501.15
2019-02-21T06:24:47.417Z,100500.78
2019-02-21T06:27:45.079Z,100499.57
2019-02-21T06:30:47.892Z,100504.72
2019-02-21T06:33:37.683Z,100511.55
2019-02-21T06:36:27.506Z,100510.42
2019-02-21T06:39:17.283Z,100507.28
2019-02-21T06:42:07.073Z,100519.26
2019-02-21T06:44:56.871Z,100514.32
2019-02-21T06:47:46.655Z,100513.25
2019-02-21T06:50:36.539Z,100515.47
2019-02-21T06:53:26.404Z,100518.16
2019-02-21T06:56:16.246Z,100517.84
2019-02-21T06:59:06.021Z,100521.11
2019-02-21T07:01:55.817Z,100518.16
2019-02-21T07:04:45.651Z,100519.14
2019-02-21T07:07:35.442Z,100524.34
2019-02-21T07:10:25.246Z,100520.62
2019-02-21T07:13:25.990Z,100521.25
2019-02-21T07:15:52.657Z,100525.84
2019-02-21T07:18:42.458Z,100522.53
2019-02-21T07:21:32.239Z,100525.47
2019-02-21T07:27:06.180Z,100528.92
2019-02-21T07:29:56.003Z,100523.97
2019-02-21T07:32:45.815Z,100524.83
2019-02-21T07:35:35.609Z,100530.02
2019-02-21T07:38:25.424Z,100531.75
2019-02-21T07:41:15.682Z,100525.47
2019-02-21T07:43:52.841Z,100528.84
2019-02-21T07:46:42.711Z,100527.28
2019-02-21T07:49:32.512Z,100528.58
2019-02-21T07:52:22.327Z,100531.67
2019-02-21T07:55:12.194Z,100521.19
2019-02-21T07:58:03.944Z,100524.63
2019-02-21T08:00:45.194Z,100524.66
2019-02-21T08:03:43.825Z,100522.63
2019-02-21T08:06:19.970Z,100528.98
2019-02-21T08:09:01.351Z,100521.81
2019-02-21T08:11:51.158Z,100522.32
2019-02-21T08:14:43.301Z,100521.91
2019-02-21T08:17:24.049Z,100515.58
2019-02-21T08:20:13.867Z,100513.93
2019-02-21T08:23:03.683Z,100511.92
2019-02-21T08:25:53.450Z,100517.96
2019-02-21T08:28:43.252Z,100518.45
2019-02-21T08:31:33.012Z,100522.76
2019-02-21T08:34:35.736Z,100518.07
2019-02-21T08:37:25.522Z,100511.70
2019-02-21T08:40:15.341Z,100511.30
2019-02-21T08:43:05.158Z,100508.36
2019-02-21T08:45:57.441Z,100510.04
2019-02-21T08:48:32.480Z,100506.62
2019-02-21T08:51:22.294Z,100507.00
2019-02-21T08:54:12.131Z,100500.64
2019-02-21T08:57:01.901Z,100506.97
2019-02-21T08:59:51.656Z,100504.36
2019-02-21T09:02:41.487Z,100500.56
2019-02-21T09:05:31.259Z,100512.99
2019-02-21T09:08:21.039Z,100511.73
2019-02-21T09:11:10.834Z,100518.55
2019-02-21T09:14:00.634Z,100516.38
2019-02-21T09:16:50.415Z,100511.70
2019-02-21T09:19:40.251Z,100518.08
2019-02-21T09:22:30.054Z,100511.20
2019-02-21T09:25:19.860Z,100512.48
2019-02-21T09:28:09.705Z,100510.73
2019-02-21T09:30:59.557Z,100504.34
2019-02-21T09:33:49.355Z,100507.34
2019-02-21T09:36:39.136Z,100505.17
2019-02-21T09:39:28.952Z,100505.95
2019-02-21T09:42:18.828Z,100515.28
2019-02-21T09:45:11.729Z,100517.49
2019-02-21T09:48:01.540Z,100516.59
2019-02-21T09:50:51.392Z,100513.56
2019-02-21T09:53:41.184Z,100519.53
2019-02-21T09:56:31.063Z,100519.47
2019-02-21T09:59:39.886Z,100527.02
2019-02-21T10:02:29.730Z,100522.02
2019-02-21T10:05:19.536Z,100524.89
2019-02-21T10:08:09.342Z,100536.20
2019-02-21T10:11:00.861Z,100527.38
2019-02-21T10:13:45.407Z,100511.96
2019-02-21T10:16:35.217Z,100508.09
2019-02-21T10:19:25.002Z,100505.86
2019-02-21T10:22:14.817Z,100505.54
2019-02-21T10:25:05.270Z,100509.41
2019-02-21T10:27:55.094Z,100509.28
2019-02-21T10:30:44.901Z,100501.27
2019-02-21T10:33:34.685Z,100496.97
2019-02-21T10:36:24.562Z,100497.83
2019-02-21T10:39:14.387Z,100492.71
2019-02-21T10:42:04.340Z,100492.67
2019-02-21T10:44:54.135Z,100490.45
2019-02-21T10:47:43.944Z,100484.33
2019-02-21T10:50:33.734Z,100473.79
2019-02-21T10:53:23.533Z,100472.30
2019-02-21T10:56:13.379Z,100471.84
2019-02-21T10:59:03.191Z,100461.97
2019-02-21T11:01:53.082Z,100464.20
2019-02-21T11:04:54.073Z,100461.36
2019-02-21T11:07:25.330Z,100458.80
2019-02-21T11:13:36.780Z,100440.50
2019-02-21T11:16:26.556Z,100442.12
2019-02-21T11:19:16.369Z,100430.66
2019-02-21T11:22:06.109Z,100443.84
2019-02-21T11:24:55.899Z,100424.08
2019-02-21T11:27:45.646Z,100424.95
2019-02-21T11:30:35.439Z,100413.33
2019-02-21T11:33:25.183Z,100416.30
2019-02-21T11:36:14.986Z,100401.42
2019-02-21T11:42:28.934Z,100410.75
2019-02-21T11:48:45.491Z,100410.02
2019-02-21T11:51:35.250Z,100407.50
2019-02-21T11:54:27.250Z,100399.00
2019-02-21T11:57:16.610Z,100403.38
2019-02-21T12:03:29.202Z,100387.05
2019-02-21T12:06:18.993Z,100392.31
2019-02-21T12:12:30.789Z,100389.71
2019-02-21T12:15:20.547Z,100391.26
2019-02-21T12:18:10.441Z,100390.39
2019-02-21T12:21:00.199Z,100396.19
2019-02-21T12:23:49.991Z,100391.12
2019-02-21T12:26:39.773Z,100377.41
2019-02-21T12:29:29.564Z,100373.45
2019-02-21T12:32:19.396Z,100375.52
2019-02-21T12:35:09.338Z,100365.19
2019-02-21T12:37:59.136Z,100374.66
2019-02-21T12:40:48.923Z,100373.42
2019-02-21T12:43:38.673Z,100371.45
2019-02-21T12:46:28.450Z,100360.59
2019-02-21T12:49:18.191Z,100367.05
2019-02-21T12:52:08.003Z,100357.23
2019-02-21T12:54:57.751Z,100359.32
2019-02-21T12:57:47.561Z,100354.19
2019-02-21T13:00:37.341Z,100347.27
2019-02-21T13:03:27.109Z,100336.59
2019-02-21T13:06:16.908Z,100344.38
2019-02-21T13:11:49.523Z,100344.89
2019-02-21T13:14:39.288Z,100346.58
2019-02-21T13:17:29.084Z,100327.14
2019-02-21T13:20:18.869Z,100322.22
2019-02-21T13:23:08.725Z,100324.19
2019-02-21T13:25:58.630Z,100325.91
2019-02-21T13:28:48.437Z,100320.88
2019-02-21T13:31:38.214Z,100329.91
2019-02-21T13:34:28.011Z,100314.64
2019-02-21T13:37:28.280Z,100311.41
2019-02-21T13:40:01.173Z,100316.69
2019-02-21T13:42:50.933Z,100318.91
2019-02-21T13:45:40.758Z,100310.98
2019-02-21T13:48:30.599Z,100316.38
2019-02-21T13:51:20.411Z,100329.77
2019-02-21T13:54:10.232Z,100303.88
2019-02-21T13:57:00.062Z,100314.87
2019-02-21T13:59:49.862Z,100316.95
2019-02-21T14:02:39.702Z,100310.80
2019-02-21T14:05:29.488Z,100311.80
2019-02-21T14:08:19.309Z,100301.56
2019-02-21T14:11:09.197Z,100322.13
2019-02-21T14:13:58.994Z,100302.17
2019-02-21T14:16:48.787Z,100296.62
2019-02-21T14:19:38.667Z,100302.83
2019-02-21T14:22:28.540Z,100296.01
2019-02-21T14:25:18.330Z,100299.00
2019-02-21T14:28:08.148Z,100290.73
2019-02-21T14:30:57.981Z,100294.37
2019-02-21T14:33:47.772Z,100290.42
2019-02-21T14:36:37.584Z,100294.16
2019-02-21T14:39:27.393Z,100295.66
2019-02-21T14:42:17.177Z,100288.48
2019-02-21T14:45:08.050Z,100287.52
2019-02-21T14:47:57.846Z,100320.58
2019-02-21T14:50:47.622Z,100288.99
2019-02-21T14:53:37.427Z,100283.37
2019-02-21T14:56:27.223Z,100285.61
2019-02-21T15:02:20.176Z,100297.05
2019-02-21T15:05:10.237Z,100283.04
2019-02-21T15:07:53.023Z,100273.57
2019-02-21T15:10:42.852Z,100278.37
2019-02-21T15:13:32.671Z,100276.19
2019-02-21T15:16:22.450Z,100281.80
2019-02-21T15:19:12.252Z,100283.20
2019-02-21T15:22:02.044Z,100277.74
2019-02-21T15:24:51.814Z,100278.17
2019-02-21T15:27:41.628Z,100276.03
2019-02-21T15:30:31.563Z,100283.85
2019-02-21T15:33:21.376Z,100283.89
2019-02-21T15:36:11.243Z,100272.56
2019-02-21T15:39:01.053Z,100278.79
2019-02-21T15:41:50.878Z,100281.08
2019-02-21T15:44:40.662Z,100277.65
2019-02-21T15:47:30.456Z,100283.42
2019-02-21T15:50:20.487Z,100282.59
2019-02-21T15:53:10.386Z,100295.45
2019-02-21T15:56:00.189Z,100281.41
2019-02-21T15:58:49.974Z,100275.48
2019-02-21T16:01:47.081Z,100277.73
2019-02-21T16:04:24.033Z,100282.11
2019-02-21T16:07:13.846Z,100278.17
2019-02-21T16:10:03.655Z,100282.98
2019-02-21T16:12:53.541Z,100274.02
2019-02-21T16:15:43.366Z,100277.86
2019-02-21T16:18:33.138Z,100271.11
2019-02-21T16:21:22.943Z,100276.64
2019-02-21T16:24:12.753Z,100278.40
2019-02-21T16:27:02.616Z,100278.40
2019-02-21T16:29:52.435Z,100272.87
2019-02-21T16:32:42.265Z,100278.07
2019-02-21T16:35:32.042Z,100303.34
2019-02-21T16:38:21.891Z,100286.19
2019-02-21T16:41:11.689Z,100293.16
2019-02-21T16:44:01.501Z,100279.49
2019-02-21T16:46:51.274Z,100296.19
2019-02-21T16:49:41.148Z,100289.34
2019-02-21T16:52:30.939Z,100297.06
2019-02-21T16:55:20.759Z,100300.08
2019-02-21T16:58:10.544Z,100294.50
2019-02-21T17:01:00.326Z,100297.98
2019-02-21T17:03:50.125Z,100290.27
2019-02-21T17:06:39.936Z,100293.25
2019-02-21T17:09:29.710Z,100282.18
2019-02-21T17:12:19.502Z,100297.59
2019-02-21T17:15:10.582Z,100307.42
2019-02-21T17:18:03.829Z,100295.89
2019-02-21T17:20:44.518Z,100288.63
2019-02-21T17:23:34.292Z,100295.45
2019-02-21T17:26:24.034Z,100281.86
2019-02-21T17:29:13.831Z,100298.47
2019-02-21T17:32:03.613Z,100288.23
2019-02-21T17:34:53.411Z,100290.83
2019-02-21T17:37:43.161Z,100283.17
2019-02-21T17:40:32.969Z,100288.70
2019-02-21T17:43:22.726Z,100291.70
2019-02-21T17:46:12.540Z,100299.44
2019-02-21T17:49:02.296Z,100293.89
2019-02-21T17:51:53.810Z,100309.27
2019-02-21T17:54:35.131Z,100310.53
2019-02-21T17:57:24.918Z,100313.11
2019-02-21T18:00:17.506Z,100316.09
2019-02-21T18:03:07.344Z,100337.03
2019-02-21T18:05:57.138Z,100319.08
2019-02-21T18:08:46.927Z,100331.52
2019-02-21T18:11:36.765Z,100337.07
2019-02-21T18:14:26.543Z,100323.00
2019-02-21T18:17:16.343Z,100318.76
2019-02-21T18:20:06.712Z,100319.23
2019-02-21T18:22:56.507Z,100318.34
2019-02-21T18:26:07.112Z,100310.61
2019-02-21T18:28:56.927Z,100323.02
2019-02-21T18:31:46.744Z,100297.45
2019-02-21T18:34:36.604Z,100296.09
2019-02-21T18:37:26.441Z,100291.84
2019-02-21T18:40:19.699Z,100294.02
2019-02-21T18:43:08.329Z,100300.34
2019-02-21T18:45:58.131Z,100288.81
2019-02-21T18:48:47.919Z,100283.70
2019-02-21T18:51:37.723Z,100278.64
2019-02-21T18:54:27.592Z,100279.45
2019-02-21T18:57:17.405Z,100269.16
2019-02-21T19:03:33.429Z,100270.47
2019-02-21T19:06:23.228Z,100268.27
2019-02-21T19:09:13.051Z,100262.73
2019-02-21T19:12:02.859Z,100273.38
2019-02-21T19:14:52.744Z,100269.98
2019-02-21T19:17:42.527Z,100266.19
2019-02-21T19:20:32.369Z,100261.86
2019-02-21T19:23:22.227Z,100271.62
2019-02-21T19:26:12.401Z,100271.23
2019-02-21T19:29:02.317Z,100251.14
2019-02-21T19:31:52.186Z,100260.13
2019-02-21T19:34:42.069Z,100254.18
2019-02-21T19:37:32.073Z,100253.72
2019-02-21T19:40:21.973Z,100254.99
2019-02-21T19:43:11.885Z,100252.83
2019-02-21T19:46:01.768Z,100265.26
2019-02-21T19:48:51.745Z,100256.27
2019-02-21T19:51:41.686Z,100252.86
2019-02-21T19:54:31.529Z,100241.69
2019-02-21T19:57:21.412Z,100235.38
2019-02-21T20:00:26.231Z,100243.92
2019-02-21T20:03:16.065Z,100240.53
2019-02-21T20:06:06.001Z,100237.16
2019-02-21T20:08:55.947Z,100247.75
2019-02-21T20:11:45.754Z,100256.70
2019-02-21T20:14:35.605Z,100239.12
2019-02-21T20:17:25.534Z,100235.70
2019-02-21T20:20:16.751Z,100240.45
2019-02-21T20:23:06.570Z,100234.85
2019-02-21T20:25:56.392Z,100232.77
2019-02-21T20:28:46.303Z,100223.87
2019-02-21T20:31:37.247Z,100225.09
2019-02-21T20:34:27.166Z,100230.17
2019-02-21T20:37:17.004Z,100225.45
2019-02-21T20:40:07.195Z,100223.82
2019-02-21T20:42:57.121Z,100228.98
2019-02-21T20:45:53.156Z,100216.53
2019-02-21T20:48:30.689Z,100214.91
2019-02-21T20:51:13.462Z,100216.20
2019-02-21T20:54:03.315Z,100215.80
2019-02-21T20:56:53.166Z,100215.80
2019-02-21T20:59:43.003Z,100212.45
2019-02-21T21:02:33.512Z,100211.59
2019-02-21T21:05:23.700Z,100226.08
2019-02-21T21:08:13.670Z,100210.26
2019-02-21T21:11:03.733Z,100225.69
2019-02-21T21:13:56.514Z,100212.41
2019-02-21T21:16:48.384Z,100205.13
2019-02-21T21:19:38.250Z,100216.28
2019-02-21T21:22:28.118Z,100231.66
2019-02-21T21:25:18.009Z,100217.94
2019-02-21T21:28:07.999Z,100210.26
2019-02-21T21:30:57.862Z,100209.80
2019-02-21T21:33:47.784Z,100220.55
2019-02-21T21:36:37.587Z,100224.00
2019-02-21T21:39:27.459Z,100231.26
2019-02-21T21:42:17.342Z,100225.72
2019-02-21T21:45:09.561Z,100230.48
2019-02-21T21:47:59.406Z,100235.18
2019-02-21T21:50:49.264Z,100232.22
2019-02-21T21:53:39.106Z,100233.52
2019-02-21T21:56:28.915Z,100235.18
2019-02-21T21:59:18.705Z,100226.25
2019-02-21T22:02:08.595Z,100234.38
2019-02-21T22:04:58.419Z,100227.14
2019-02-21T22:07:49.290Z,100233.53
2019-02-21T22:10:25.793Z,100223.36
2019-02-21T22:13:15.594Z,100236.97
2019-02-21T22:16:05.390Z,100240.05
2019-02-21T22:18:55.181Z,100246.87
2019-02-21T22:21:44.976Z,100244.73
2019-02-21T22:24:34.784Z,100239.61
2019-02-21T22:27:24.970Z,100231.09
2019-02-21T22:30:10.037Z,100285.69
2019-02-21T22:32:59.837Z,100232.41
2019-02-21T22:35:50.029Z,100234.56
2019-02-21T22:38:39.878Z,100254.59
2019-02-21T22:41:48.710Z,100238.44
2019-02-21T22:44:38.496Z,100226.95
2019-02-21T22:47:28.293Z,100236.28
2019-02-21T22:50:18.120Z,100231.99
2019-02-21T22:53:07.979Z,100226.03
2019-02-21T22:55:57.773Z,100229.05
2019-02-21T22:58:47.584Z,100230.77
2019-02-21T23:01:40.403Z,100232.05
2019-02-21T23:05:08.323Z,100237.14
2019-02-21T23:08:22.122Z,100227.77
2019-02-21T23:11:12.054Z,100229.48
2019-02-21T23:14:01.816Z,100227.36
2019-02-21T23:16:51.691Z,100219.27
2019-02-21T23:19:41.491Z,100214.56
2019-02-21T23:22:31.306Z,100213.30
2019-02-21T23:25:21.107Z,100210.74
2019-02-21T23:28:10.920Z,100214.16
2019-02-21T23:31:00.679Z,100215.42
2019-02-21T23:36:50.195Z,100207.81
2019-02-21T23:39:39.959Z,100207.38
2019-02-21T23:42:29.774Z,100218.03
2019-02-21T23:45:19.556Z,100204.34
2019-02-21T23:48:09.390Z,100204.38
2019-02-21T23:50:59.177Z,100199.27
2019-02-21T23:53:48.989Z,100209.50
2019-02-21T23:56:39.773Z,100204.82
2019-02-21T23:59:29.574Z,100199.28
